createdAt,value
2019-02-10T00:01:21.416Z,63.29
2019-02-10T00:03:49.999Z,64.26
2019-02-10T00:06:24.507Z,61.96
2019-02-10T00:08:49.219Z,62.05
2019-02-10T00:11:17.989Z,61.82
2019-02-10T00:13:46.595Z,64.24
2019-02-10T00:16:17.699Z,63.00
2019-02-10T00:18:46.316Z,65.56
2019-02-10T00:21:15.012Z,64.32
2019-02-10T00:23:43.592Z,62.51
2019-02-10T00:26:12.252Z,63.29
2019-02-10T00:28:40.844Z,63.45
2019-02-10T00:31:09.465Z,65.00
2019-02-10T00:33:38.093Z,65.80
2019-02-10T00:36:06.675Z,65.62
2019-02-10T00:38:35.274Z,66.22
2019-02-10T00:41:03.868Z,63.82
2019-02-10T00:43:32.439Z,64.75
2019-02-10T00:46:01.026Z,63.76
2019-02-10T00:48:29.637Z,63.67
2019-02-10T00:50:58.489Z,64.73
2019-02-10T00:53:27.115Z,63.29
2019-02-10T00:55:55.837Z,63.89
2019-02-10T00:58:24.687Z,63.82
2019-02-10T01:00:53.345Z,62.71
2019-02-10T01:03:22.003Z,64.38
2019-02-10T01:05:50.663Z,63.98
2019-02-10T01:08:19.440Z,62.02
2019-02-10T01:10:48.357Z,61.85
2019-02-10T01:13:16.867Z,63.33
2019-02-10T01:15:45.726Z,61.50
2019-02-10T01:18:14.335Z,61.18
2019-02-10T01:20:42.934Z,63.77
2019-02-10T01:23:11.515Z,62.08
2019-02-10T01:25:40.118Z,59.81
2019-02-10T01:28:08.694Z,61.52
2019-02-10T01:30:37.460Z,62.01
2019-02-10T01:33:06.048Z,63.08
2019-02-10T01:35:35.092Z,64.14
2019-02-10T01:38:04.225Z,63.00
2019-02-10T01:40:32.791Z,63.54
2019-02-10T01:43:01.697Z,64.05
2019-02-10T01:45:30.320Z,64.54
2019-02-10T01:47:58.917Z,61.94
2019-02-10T01:50:27.507Z,61.75
2019-02-10T01:52:56.147Z,64.74
2019-02-10T01:55:24.750Z,62.86
2019-02-10T01:57:53.347Z,61.52
2019-02-10T02:00:22.176Z,64.24
2019-02-10T02:02:50.839Z,64.55
2019-02-10T02:05:19.411Z,63.83
2019-02-10T02:07:47.983Z,64.89
2019-02-10T02:10:16.560Z,63.08
2019-02-10T02:12:45.243Z,63.48
2019-02-10T02:15:14.513Z,63.25
2019-02-10T02:17:43.103Z,63.58
2019-02-10T02:20:12.118Z,66.18
2019-02-10T02:22:40.718Z,67.86
2019-02-10T02:25:10.431Z,65.36
2019-02-10T02:27:39.178Z,64.13
2019-02-10T02:30:12.570Z,64.59
2019-02-10T02:32:41.270Z,65.76
2019-02-10T02:35:11.129Z,66.14
2019-02-10T02:37:39.805Z,65.75
2019-02-10T02:40:09.847Z,65.77
2019-02-10T02:42:38.563Z,65.40
2019-02-10T02:45:09.360Z,65.75
2019-02-10T02:47:37.979Z,66.50
2019-02-10T02:50:08.039Z,63.70
2019-02-10T02:52:36.637Z,62.85
2019-02-10T02:55:05.411Z,65.39
2019-02-10T02:57:33.988Z,63.69
2019-02-10T03:00:02.622Z,62.78
2019-02-10T03:02:31.199Z,62.98
2019-02-10T03:04:59.794Z,63.43
2019-02-10T03:07:28.406Z,61.07
2019-02-10T03:09:57.087Z,60.74
2019-02-10T03:12:25.684Z,61.10
2019-02-10T03:14:54.278Z,61.32
2019-02-10T03:17:22.970Z,60.84
2019-02-10T03:19:51.600Z,63.37
2019-02-10T03:22:20.196Z,63.57
2019-02-10T03:24:48.783Z,62.83
2019-02-10T03:27:17.384Z,63.93
2019-02-10T03:29:45.976Z,61.45
2019-02-10T03:32:14.568Z,61.34
2019-02-10T03:34:43.160Z,62.24
2019-02-10T03:37:11.780Z,63.52
2019-02-10T03:39:40.509Z,61.87
2019-02-10T03:42:09.183Z,62.84
2019-02-10T03:44:37.813Z,63.27
2019-02-10T03:47:06.383Z,64.21
2019-02-10T03:49:34.972Z,66.33
2019-02-10T03:52:03.548Z,62.81
2019-02-10T03:54:32.225Z,64.65
2019-02-10T03:57:00.887Z,66.24
2019-02-10T03:59:29.822Z,66.59
2019-02-10T04:01:58.480Z,67.02
2019-02-10T04:04:27.075Z,66.42
2019-02-10T04:06:55.910Z,65.79
2019-02-10T04:09:24.496Z,67.29
2019-02-10T04:11:53.103Z,66.30
2019-02-10T04:14:21.919Z,67.93
2019-02-10T04:16:50.508Z,66.89
2019-02-10T04:19:19.356Z,65.74
2019-02-10T04:21:47.941Z,65.30
2019-02-10T04:24:16.518Z,63.59
2019-02-10T04:26:45.152Z,64.08
2019-02-10T04:29:16.559Z,63.57
2019-02-10T04:31:45.179Z,63.82
2019-02-10T04:34:13.753Z,65.20
2019-02-10T04:36:42.532Z,65.50
2019-02-10T04:39:11.114Z,65.00
2019-02-10T04:41:39.719Z,65.51
2019-02-10T04:44:08.294Z,66.39
2019-02-10T04:46:36.901Z,66.13
2019-02-10T04:49:05.478Z,65.72
2019-02-10T04:51:34.051Z,69.00
2019-02-10T04:54:02.964Z,67.40
2019-02-10T04:56:31.587Z,65.95
2019-02-10T04:59:00.194Z,66.44
2019-02-10T05:01:29.023Z,66.69
2019-02-10T05:03:57.602Z,67.24
2019-02-10T05:06:26.221Z,67.71
2019-02-10T05:08:55.102Z,66.29
2019-02-10T05:11:23.687Z,66.53
2019-02-10T05:13:52.340Z,64.25
2019-02-10T05:16:20.911Z,64.95
2019-02-10T05:18:49.536Z,66.95
2019-02-10T05:21:18.217Z,66.22
2019-02-10T05:23:46.932Z,63.21
2019-02-10T05:26:15.471Z,65.30
2019-02-10T05:28:44.105Z,64.70
2019-02-10T05:31:12.679Z,64.50
2019-02-10T05:33:41.291Z,64.70
2019-02-10T05:36:10.082Z,66.28
2019-02-10T05:38:38.696Z,66.88
2019-02-10T05:41:07.321Z,66.36
2019-02-10T05:43:35.905Z,66.15
2019-02-10T05:46:04.505Z,64.89
2019-02-10T05:48:33.098Z,66.28
2019-02-10T05:51:01.695Z,66.85
2019-02-10T05:53:30.597Z,65.64
2019-02-10T05:55:59.163Z,66.12
2019-02-10T05:58:27.758Z,68.76
2019-02-10T06:01:33.512Z,66.76
2019-02-10T06:04:02.112Z,67.66
2019-02-10T06:06:30.740Z,67.28
2019-02-10T06:08:59.350Z,64.81
2019-02-10T06:11:27.932Z,67.37
2019-02-10T06:13:56.506Z,67.47
2019-02-10T06:16:25.111Z,66.45
2019-02-10T06:18:53.694Z,65.67
2019-02-10T06:21:22.274Z,65.93
2019-02-10T06:23:50.828Z,64.99
2019-02-10T06:26:19.493Z,67.57
2019-02-10T06:28:48.056Z,69.27
2019-02-10T06:31:16.693Z,68.75
2019-02-10T06:33:45.273Z,68.53
2019-02-10T06:36:13.886Z,66.70
2019-02-10T06:38:42.440Z,68.19
2019-02-10T06:41:11.032Z,68.25
2019-02-10T06:43:39.610Z,68.82
2019-02-10T06:46:08.230Z,69.91
2019-02-10T06:48:36.821Z,66.70
2019-02-10T06:51:05.439Z,66.34
2019-02-10T06:53:35.043Z,68.52
2019-02-10T06:56:03.630Z,69.28
2019-02-10T06:58:32.218Z,69.23
2019-02-10T07:01:25.715Z,72.34
2019-02-10T07:04:09.316Z,68.09
2019-02-10T07:06:37.992Z,66.34
2019-02-10T07:09:07.028Z,66.31
2019-02-10T07:11:35.630Z,70.09
2019-02-10T07:14:05.862Z,71.96
2019-02-10T07:16:40.858Z,70.06
2019-02-10T07:19:45.527Z,69.82
2019-02-10T07:23:00.295Z,70.85
2019-02-10T07:26:01.306Z,70.27
2019-02-10T07:28:54.843Z,70.53
2019-02-10T07:31:38.493Z,69.92
2019-02-10T07:34:48.365Z,68.99
2019-02-10T07:37:27.933Z,71.82
2019-02-10T07:40:26.877Z,71.59
2019-02-10T07:43:04.693Z,70.37
2019-02-10T07:45:56.253Z,72.05
2019-02-10T07:48:39.132Z,68.14
2019-02-10T07:51:19.225Z,66.68
2019-02-10T07:54:09.480Z,69.88
2019-02-10T07:57:12.037Z,70.21
2019-02-10T08:00:17.869Z,70.69
2019-02-10T08:03:19.108Z,69.45
2019-02-10T08:06:12.135Z,69.66
2019-02-10T08:09:11.433Z,67.37
2019-02-10T08:12:07.963Z,70.63
2019-02-10T08:14:45.627Z,70.77
2019-02-10T08:17:44.289Z,70.77
2019-02-10T08:20:43.592Z,71.22
2019-02-10T08:23:59.677Z,70.90
2019-02-10T08:27:08.447Z,69.67
2019-02-10T08:29:50.193Z,71.47
2019-02-10T08:32:36.957Z,70.85
2019-02-10T08:35:23.040Z,69.73
2019-02-10T08:38:08.570Z,72.20
2019-02-10T08:40:46.975Z,70.54
2019-02-10T08:43:53.013Z,70.57
2019-02-10T08:46:30.988Z,70.28
2019-02-10T08:49:23.176Z,71.04
2019-02-10T08:52:30.779Z,69.63
2019-02-10T08:55:00.262Z,70.61
2019-02-10T08:57:28.899Z,70.61
2019-02-10T08:59:57.553Z,69.21
2019-02-10T09:02:26.217Z,70.64
2019-02-10T09:04:54.939Z,71.93
2019-02-10T09:07:23.926Z,71.93
2019-02-10T09:09:52.548Z,73.43
2019-02-10T09:12:21.213Z,71.62
2019-02-10T09:14:49.903Z,71.31
2019-02-10T09:17:18.647Z,73.81
2019-02-10T09:19:47.272Z,71.01
2019-02-10T09:22:15.898Z,71.88
2019-02-10T09:24:44.606Z,71.88
2019-02-10T09:27:13.428Z,72.87
2019-02-10T09:29:42.082Z,72.33
2019-02-10T09:32:11.257Z,71.30
2019-02-10T09:34:39.875Z,73.08
2019-02-10T09:37:08.493Z,71.57
2019-02-10T09:39:37.168Z,71.57
2019-02-10T09:42:05.853Z,71.41
2019-02-10T09:44:34.420Z,72.21
2019-02-10T09:47:03.085Z,72.65
2019-02-10T09:49:31.693Z,72.65
2019-02-10T09:52:00.357Z,71.96
2019-02-10T09:54:28.968Z,72.09
2019-02-10T09:56:57.687Z,71.22
2019-02-10T09:59:26.301Z,71.95
2019-02-10T10:01:54.919Z,69.82
2019-02-10T10:04:23.598Z,69.80
2019-02-10T10:06:52.346Z,69.80
2019-02-10T10:09:20.959Z,69.86
2019-02-10T10:11:49.591Z,73.16
2019-02-10T10:14:19.713Z,73.16
2019-02-10T10:16:48.418Z,72.07
2019-02-10T10:19:17.019Z,72.07
2019-02-10T10:21:45.725Z,69.45
2019-02-10T10:24:14.723Z,69.70
2019-02-10T10:26:43.408Z,69.70
2019-02-10T10:29:12.032Z,71.04
2019-02-10T10:31:40.656Z,70.32
2019-02-10T10:34:09.320Z,70.32
2019-02-10T10:36:38.047Z,69.95
2019-02-10T10:39:07.312Z,70.13
2019-02-10T10:41:35.983Z,70.13
2019-02-10T10:44:04.657Z,70.31
2019-02-10T10:46:33.316Z,70.91
2019-02-10T10:49:01.993Z,69.87
2019-02-10T10:51:30.622Z,69.87
2019-02-10T10:53:59.375Z,68.52
2019-02-10T10:56:28.095Z,69.26
2019-02-10T10:58:57.022Z,69.49
2019-02-10T11:01:25.705Z,69.19
2019-02-10T11:03:54.340Z,70.98
2019-02-10T11:06:23.011Z,68.75
2019-02-10T11:08:51.704Z,68.75
2019-02-10T11:11:20.473Z,71.06
2019-02-10T11:13:49.151Z,69.99
2019-02-10T11:16:17.840Z,72.17
2019-02-10T11:18:46.418Z,70.08
2019-02-10T11:21:15.162Z,70.03
2019-02-10T11:23:43.816Z,68.57
2019-02-10T11:26:12.525Z,69.29
2019-02-10T11:28:41.156Z,69.27
2019-02-10T11:31:09.918Z,69.06
2019-02-10T11:33:38.632Z,69.06
2019-02-10T11:36:07.470Z,70.83
2019-02-10T11:38:36.093Z,69.71
2019-02-10T11:41:04.750Z,69.71
2019-02-10T11:43:33.794Z,68.00
2019-02-10T11:46:02.493Z,68.00
2019-02-10T11:48:31.092Z,68.23
2019-02-10T11:51:00.441Z,66.16
2019-02-10T11:53:29.196Z,66.16
2019-02-10T11:55:57.824Z,65.86
2019-02-10T11:58:26.444Z,69.15
2019-02-10T12:00:55.093Z,69.15
2019-02-10T12:03:23.742Z,67.57
2019-02-10T12:05:52.391Z,67.57
2019-02-10T12:08:21.078Z,69.15
2019-02-10T12:10:49.873Z,69.15
2019-02-10T12:13:18.646Z,69.36
2019-02-10T12:15:47.238Z,68.21
2019-02-10T12:18:15.869Z,67.30
2019-02-10T12:20:44.495Z,67.30
2019-02-10T12:23:13.177Z,67.17
2019-02-10T12:25:41.912Z,67.48
2019-02-10T12:28:10.518Z,67.48
2019-02-10T12:30:39.231Z,68.42
2019-02-10T12:33:07.876Z,68.42
2019-02-10T12:35:36.531Z,67.54
2019-02-10T12:38:05.243Z,67.54
2019-02-10T12:40:33.962Z,67.57
2019-02-10T12:43:02.544Z,65.22
2019-02-10T12:45:31.613Z,69.04
2019-02-10T12:48:00.401Z,69.04
2019-02-10T12:50:29.257Z,68.54
2019-02-10T12:52:58.210Z,68.68
2019-02-10T12:55:27.329Z,69.60
2019-02-10T12:57:56.048Z,68.62
2019-02-10T13:00:24.833Z,68.62
2019-02-10T13:02:53.485Z,67.21
2019-02-10T13:05:22.092Z,65.98
2019-02-10T13:07:50.697Z,66.80
2019-02-10T13:10:19.400Z,66.80
2019-02-10T13:12:48.045Z,69.16
2019-02-10T13:15:16.805Z,68.08
2019-02-10T13:17:45.502Z,67.48
2019-02-10T13:20:14.307Z,67.60
2019-02-10T13:22:43.028Z,67.60
2019-02-10T13:25:11.810Z,68.28
2019-02-10T13:27:40.598Z,69.22
2019-02-10T13:30:10.939Z,70.84
2019-02-10T13:32:39.571Z,70.58
2019-02-10T13:35:08.359Z,70.09
2019-02-10T13:37:37.033Z,70.09
2019-02-10T13:40:16.224Z,68.66
2019-02-10T13:42:38.541Z,68.54
2019-02-10T13:45:07.522Z,68.54
2019-02-10T13:47:36.238Z,67.99
2019-02-10T13:50:05.762Z,65.91
2019-02-10T13:52:34.435Z,66.13
2019-02-10T13:55:03.314Z,67.93
2019-02-10T13:57:32.215Z,67.93
2019-02-10T14:00:00.976Z,69.37
2019-02-10T14:02:29.605Z,68.45
2019-02-10T14:04:59.044Z,70.13
2019-02-10T14:07:27.800Z,70.13
2019-02-10T14:09:56.535Z,71.36
2019-02-10T14:12:25.261Z,71.36
2019-02-10T14:14:53.932Z,69.95
2019-02-10T14:17:22.682Z,69.95
2019-02-10T14:19:51.375Z,68.23
2019-02-10T14:22:19.994Z,67.92
2019-02-10T14:24:48.623Z,68.19
2019-02-10T14:27:17.269Z,71.46
2019-02-10T14:29:45.939Z,71.17
2019-02-10T14:32:14.651Z,71.22
2019-02-10T14:34:43.356Z,69.89
2019-02-10T14:37:12.026Z,69.27
2019-02-10T14:39:40.640Z,69.20
2019-02-10T14:42:09.306Z,70.37
2019-02-10T14:44:37.886Z,68.41
2019-02-10T14:47:06.486Z,68.05
2019-02-10T14:49:35.125Z,67.94
2019-02-10T14:52:03.741Z,69.46
2019-02-10T14:54:32.353Z,69.55
2019-02-10T14:57:01.212Z,71.48
2019-02-10T14:59:29.836Z,69.72
2019-02-10T15:04:26.038Z,68.99
2019-02-10T15:06:54.682Z,69.49
2019-02-10T15:09:23.357Z,70.24
2019-02-10T15:11:51.970Z,69.65
2019-02-10T15:14:20.604Z,72.08
2019-02-10T15:16:49.262Z,71.36
2019-02-10T15:19:17.959Z,71.03
2019-02-10T15:21:46.535Z,69.51
2019-02-10T15:24:15.220Z,70.19
2019-02-10T15:26:43.814Z,67.80
2019-02-10T15:29:12.497Z,66.46
2019-02-10T15:31:41.177Z,68.54
2019-02-10T15:34:09.854Z,68.84
2019-02-10T15:36:38.426Z,69.11
2019-02-10T15:39:07.106Z,68.15
2019-02-10T15:41:35.714Z,69.41
2019-02-10T15:44:04.416Z,69.83
2019-02-10T15:46:34.027Z,68.87
2019-02-10T15:49:02.700Z,66.53
2019-02-10T15:51:36.890Z,67.94
2019-02-10T15:54:01.710Z,68.06
2019-02-10T15:56:30.326Z,70.83
2019-02-10T15:58:59.005Z,72.46
2019-02-10T16:01:27.719Z,70.05
2019-02-10T16:03:56.318Z,69.06
2019-02-10T16:06:25.005Z,69.67
2019-02-10T16:08:53.616Z,71.79
2019-02-10T16:11:22.297Z,71.16
2019-02-10T16:13:50.887Z,71.05
2019-02-10T16:16:19.485Z,71.19
2019-02-10T16:18:48.132Z,71.08
2019-02-10T16:21:16.941Z,71.28
2019-02-10T16:23:45.551Z,73.15
2019-02-10T16:26:14.376Z,71.99
2019-02-10T16:28:44.546Z,71.45
2019-02-10T16:31:13.092Z,70.59
2019-02-10T16:33:42.427Z,70.54
2019-02-10T16:36:11.033Z,72.26
2019-02-10T16:38:39.703Z,69.90
2019-02-10T16:41:08.245Z,71.58
2019-02-10T16:43:37.087Z,70.02
2019-02-10T16:46:05.686Z,70.15
2019-02-10T16:48:34.326Z,72.15
2019-02-10T16:51:02.971Z,70.98
2019-02-10T16:53:31.573Z,72.47
2019-02-10T16:56:00.170Z,73.38
2019-02-10T16:58:28.733Z,73.40
2019-02-10T17:00:57.309Z,72.80
2019-02-10T17:03:25.920Z,73.55
2019-02-10T17:05:54.576Z,73.66
2019-02-10T17:08:23.438Z,73.26
2019-02-10T17:10:52.107Z,72.74
2019-02-10T17:13:20.696Z,71.84
2019-02-10T17:15:49.295Z,70.52
2019-02-10T17:18:17.904Z,73.09
2019-02-10T17:20:46.520Z,73.39
2019-02-10T17:23:15.114Z,70.93
2019-02-10T17:25:43.715Z,71.19
2019-02-10T17:28:12.321Z,70.73
2019-02-10T17:30:40.941Z,70.80
2019-02-10T17:33:09.821Z,69.36
2019-02-10T17:35:38.430Z,67.93
2019-02-10T17:38:07.023Z,71.31
2019-02-10T17:40:38.665Z,70.78
2019-02-10T17:43:07.258Z,73.15
2019-02-10T17:45:35.905Z,74.00
2019-02-10T17:48:04.504Z,73.72
2019-02-10T17:50:33.088Z,72.21
2019-02-10T17:53:01.686Z,69.91
2019-02-10T17:55:30.272Z,71.72
2019-02-10T17:57:58.861Z,73.16
2019-02-10T18:00:31.403Z,72.88
2019-02-10T18:03:00.003Z,71.73
2019-02-10T18:05:28.582Z,72.40
2019-02-10T18:07:57.204Z,72.37
2019-02-10T18:10:25.785Z,72.81
2019-02-10T18:12:54.375Z,71.28
2019-02-10T18:15:40.582Z,73.47
2019-02-10T18:18:16.078Z,72.18
2019-02-10T18:20:54.926Z,72.23
2019-02-10T18:23:45.648Z,73.33
2019-02-10T18:26:31.930Z,72.05
2019-02-10T18:29:13.312Z,72.22
2019-02-10T18:31:51.552Z,72.34
2019-02-10T18:34:26.907Z,71.61
2019-02-10T18:37:03.816Z,71.72
2019-02-10T18:39:40.234Z,70.12
2019-02-10T18:42:40.122Z,68.53
2019-02-10T18:45:26.571Z,72.32
2019-02-10T18:48:12.816Z,71.98
2019-02-10T18:50:57.476Z,72.71
2019-02-10T18:53:48.092Z,73.07
2019-02-10T18:56:31.461Z,72.15
2019-02-10T18:59:10.530Z,70.79
2019-02-10T19:02:07.009Z,72.56
2019-02-10T19:04:52.926Z,73.75
2019-02-10T19:07:33.796Z,73.60
2019-02-10T19:10:20.148Z,74.66
2019-02-10T19:13:06.439Z,74.32
2019-02-10T19:15:59.227Z,74.21
2019-02-10T19:18:33.824Z,73.03
2019-02-10T19:21:20.117Z,72.82
2019-02-10T19:24:06.395Z,73.19
2019-02-10T19:26:57.322Z,72.75
2019-02-10T19:29:43.081Z,73.74
2019-02-10T19:32:29.579Z,72.33
2019-02-10T19:35:20.297Z,72.26
2019-02-10T19:38:06.673Z,74.56
2019-02-10T19:40:51.309Z,72.51
2019-02-10T19:43:40.060Z,72.08
2019-02-10T19:46:43.290Z,72.36
2019-02-10T19:49:27.191Z,73.09
2019-02-10T19:52:26.788Z,71.84
2019-02-10T19:55:02.989Z,73.38
2019-02-10T19:57:49.218Z,72.44
2019-02-10T20:00:32.395Z,74.20
2019-02-10T20:03:18.697Z,73.65
2019-02-10T20:06:05.080Z,72.92
2019-02-10T20:08:49.796Z,72.99
2019-02-10T20:11:37.465Z,72.72
2019-02-10T20:14:21.198Z,72.52
2019-02-10T20:17:11.875Z,71.81
2019-02-10T20:20:08.130Z,74.09
2019-02-10T20:23:04.723Z,73.03
2019-02-10T20:25:52.567Z,71.99
2019-02-10T20:28:46.152Z,73.29
2019-02-10T20:31:24.538Z,72.41
2019-02-10T20:36:49.816Z,73.63
2019-02-10T20:39:28.278Z,72.29
2019-02-10T20:42:18.170Z,70.10
2019-02-10T20:45:04.768Z,71.12
2019-02-10T20:47:51.005Z,72.41
2019-02-10T20:50:35.708Z,71.60
2019-02-10T20:53:20.368Z,71.09
2019-02-10T20:56:20.224Z,72.37
2019-02-10T20:59:03.682Z,72.59
2019-02-10T21:01:50.161Z,72.87
2019-02-10T21:04:25.976Z,73.04
2019-02-10T21:07:08.216Z,72.38
2019-02-10T21:09:54.927Z,72.60
2019-02-10T21:12:35.801Z,72.81
2019-02-10T21:15:39.080Z,71.14
2019-02-10T21:18:23.707Z,70.94
2019-02-10T21:21:14.848Z,72.05
2019-02-10T21:24:01.299Z,71.75
2019-02-10T21:26:47.983Z,71.35
2019-02-10T21:29:38.743Z,71.12
2019-02-10T21:32:14.532Z,69.31
2019-02-10T21:35:02.208Z,72.64
2019-02-10T21:37:42.273Z,70.51
2019-02-10T21:40:19.210Z,70.20
2019-02-10T21:42:59.731Z,71.53
2019-02-10T21:45:50.259Z,68.52
2019-02-10T21:48:25.444Z,68.19
2019-02-10T21:50:54.036Z,71.98
2019-02-10T21:53:22.673Z,71.48
2019-02-10T21:55:51.494Z,72.29
2019-02-10T21:58:20.086Z,72.04
2019-02-10T22:00:48.709Z,70.56
2019-02-10T22:03:17.313Z,72.52
2019-02-10T22:05:45.925Z,73.75
2019-02-10T22:08:14.815Z,73.60
2019-02-10T22:10:43.426Z,74.25
2019-02-10T22:13:12.058Z,73.79
2019-02-10T22:15:40.655Z,71.43
2019-02-10T22:18:09.305Z,71.59
2019-02-10T22:20:37.889Z,73.60
2019-02-10T22:23:06.483Z,72.79
2019-02-10T22:25:35.174Z,72.69
2019-02-10T22:28:03.767Z,73.80
2019-02-10T22:30:32.355Z,72.78
2019-02-10T22:33:01.094Z,74.61
2019-02-10T22:35:29.701Z,73.47
2019-02-10T22:37:58.292Z,73.68
2019-02-10T22:40:26.904Z,73.70
2019-02-10T22:42:55.518Z,73.85
2019-02-10T22:45:24.133Z,74.80
2019-02-10T22:47:52.750Z,71.18
2019-02-10T22:50:21.343Z,74.67
2019-02-10T22:52:49.941Z,71.22
2019-02-10T22:55:18.833Z,75.20
2019-02-10T22:57:47.473Z,74.71
2019-02-10T23:00:36.806Z,73.68
2019-02-10T23:03:05.898Z,74.11
2019-02-10T23:05:34.679Z,73.74
2019-02-10T23:08:03.304Z,74.38
2019-02-10T23:10:31.896Z,73.52
2019-02-10T23:13:00.479Z,71.06
2019-02-10T23:15:29.084Z,74.66
2019-02-10T23:17:57.685Z,72.91
2019-02-10T23:20:26.288Z,77.01
2019-02-10T23:22:54.937Z,76.42
2019-02-10T23:25:23.543Z,75.05
2019-02-10T23:27:52.127Z,76.95
2019-02-10T23:30:20.729Z,74.38
2019-02-10T23:32:49.336Z,73.87
2019-02-10T23:35:17.995Z,73.11
2019-02-10T23:37:46.623Z,74.84
2019-02-10T23:40:15.210Z,74.83
2019-02-10T23:42:43.806Z,73.31
2019-02-10T23:45:12.484Z,72.66
2019-02-10T23:47:41.066Z,74.68
2019-02-10T23:50:09.742Z,75.40
2019-02-10T23:52:38.426Z,72.87
2019-02-10T23:55:07.088Z,76.72
2019-02-10T23:57:35.690Z,75.13
